Fairfield, Virginia
Current Conditions -  °F | °C
As of 12:35 AM on Monday 20 Oct 2014 (Local Time) from KW13 Reporting Station
Clear Clear  
Wind Chill: 38°   Ceiling: Unl
Heat Index: 38°   Visibility: 10mi
Dew Point: 33°   Wind: 3mph
Humidity: 83%   Direction: 220°SW
Pressure: 30.1"   Gusts: NA
Location:  37.88°N, 79.29°W
Report Text: KW13 200435Z AUTO 22003KT 10SM CLR 03/01 A3010 RMK AO1 T00340008
Loading
Personal Weather Stations






























Interactive Weather Map
Tropical Storm Tracking
New forecast layout! Learn more

10-Day Weather Forecast

Advertisements
Track Severe Weather on mobile